sensor_id;sensor_type;location;lat;lon;timestamp;P1;durP1;ratioP1;P2;durP2;ratioP2
27303;SDS011;14791;52.392;13.092;2023-12-04T00:01:32;9.57;;;8.63;;
27303;SDS011;14791;52.392;13.092;2023-12-04T00:04:01;9.03;;;8.20;;
27303;SDS011;14791;52.392;13.092;2023-12-04T00:06:30;8.70;;;7.90;;
27303;SDS011;14791;52.392;13.092;2023-12-04T00:08:59;8.83;;;8.00;;
27303;SDS011;14791;52.392;13.092;2023-12-04T00:11:27;9.37;;;8.47;;
27303;SDS011;14791;52.392;13.092;2023-12-04T00:13:56;8.13;;;7.33;;
27303;SDS011;14791;52.392;13.092;2023-12-04T00:16:26;8.93;;;8.13;;
27303;SDS011;14791;52.392;13.092;2023-12-04T00:18:55;8.47;;;7.77;;
27303;SDS011;14791;52.392;13.092;2023-12-04T00:21:24;8.40;;;7.63;;
27303;SDS011;14791;52.392;13.092;2023-12-04T00:23:53;8.27;;;7.57;;
27303;SDS011;14791;52.392;13.092;2023-12-04T00:26:22;8.67;;;7.87;;
27303;SDS011;14791;52.392;13.092;2023-12-04T00:28:51;8.40;;;7.60;;
27303;SDS011;14791;52.392;13.092;2023-12-04T00:31:20;8.93;;;8.03;;
27303;SDS011;14791;52.392;13.092;2023-12-04T00:33:48;10.23;;;9.13;;
27303;SDS011;14791;52.392;13.092;2023-12-04T00:36:18;8.83;;;8.03;;
27303;SDS011;14791;52.392;13.092;2023-12-04T00:38:46;9.13;;;8.23;;
27303;SDS011;14791;52.392;13.092;2023-12-04T00:41:16;9.03;;;8.13;;
27303;SDS011;14791;52.392;13.092;2023-12-04T00:43:44;9.23;;;8.17;;
27303;SDS011;14791;52.392;13.092;2023-12-04T00:46:13;11.10;;;9.10;;
27303;SDS011;14791;52.392;13.092;2023-12-04T00:48:42;10.30;;;9.30;;
27303;SDS011;14791;52.392;13.092;2023-12-04T00:51:13;9.30;;;8.40;;
27303;SDS011;14791;52.392;13.092;2023-12-04T00:53:41;9.97;;;8.90;;
27303;SDS011;14791;52.392;13.092;2023-12-04T00:56:11;10.23;;;8.33;;
27303;SDS011;14791;52.392;13.092;2023-12-04T00:58:39;8.80;;;8.00;;
27303;SDS011;14791;52.392;13.092;2023-12-04T01:01:08;11.53;;;8.60;;
27303;SDS011;14791;52.392;13.092;2023-12-04T01:03:37;14.50;;;9.90;;
27303;SDS011;14791;52.392;13.092;2023-12-04T01:06:07;10.30;;;8.90;;
27303;SDS011;14791;52.392;13.092;2023-12-04T01:08:36;10.90;;;9.63;;
27303;SDS011;14791;52.392;13.092;2023-12-04T01:11:05;10.70;;;9.40;;
27303;SDS011;14791;52.392;13.092;2023-12-04T01:13:34;11.93;;;9.40;;
27303;SDS011;14791;52.392;13.092;2023-12-04T01:16:04;12.27;;;10.00;;
27303;SDS011;14791;52.392;13.092;2023-12-04T01:18:34;10.77;;;9.67;;
27303;SDS011;14791;52.392;13.092;2023-12-04T01:21:02;12.50;;;9.40;;
27303;SDS011;14791;52.392;13.092;2023-12-04T01:23:31;10.70;;;9.40;;
27303;SDS011;14791;52.392;13.092;2023-12-04T01:26:01;9.80;;;8.80;;
27303;SDS011;14791;52.392;13.092;2023-12-04T01:28:31;10.93;;;9.60;;
27303;SDS011;14791;52.392;13.092;2023-12-04T01:31:00;10.90;;;9.00;;
27303;SDS011;14791;52.392;13.092;2023-12-04T01:33:29;12.40;;;10.90;;
27303;SDS011;14791;52.392;13.092;2023-12-04T01:35:58;13.27;;;10.20;;
27303;SDS011;14791;52.392;13.092;2023-12-04T01:38:27;10.50;;;9.40;;
27303;SDS011;14791;52.392;13.092;2023-12-04T01:40:56;11.63;;;9.73;;
27303;SDS011;14791;52.392;13.092;2023-12-04T01:43:25;9.20;;;8.40;;
27303;SDS011;14791;52.392;13.092;2023-12-04T01:45:55;9.10;;;8.30;;
27303;SDS011;14791;52.392;13.092;2023-12-04T01:48:26;9.87;;;8.80;;
27303;SDS011;14791;52.392;13.092;2023-12-04T01:50:56;9.23;;;8.43;;
27303;SDS011;14791;52.392;13.092;2023-12-04T01:53:28;10.20;;;9.20;;
27303;SDS011;14791;52.392;13.092;2023-12-04T01:55:56;9.77;;;8.87;;
27303;SDS011;14791;52.392;13.092;2023-12-04T01:58:26;11.60;;;8.83;;
27303;SDS011;14791;52.392;13.092;2023-12-04T02:00:55;11.20;;;9.90;;
27303;SDS011;14791;52.392;13.092;2023-12-04T02:03:24;13.23;;;11.33;;
27303;SDS011;14791;52.392;13.092;2023-12-04T02:05:53;13.67;;;12.23;;
27303;SDS011;14791;52.392;13.092;2023-12-04T02:08:25;13.30;;;11.87;;
27303;SDS011;14791;52.392;13.092;2023-12-04T02:10:54;16.77;;;14.07;;
27303;SDS011;14791;52.392;13.092;2023-12-04T02:13:23;15.50;;;13.57;;
27303;SDS011;14791;52.392;13.092;2023-12-04T02:15:53;13.60;;;12.17;;
27303;SDS011;14791;52.392;13.092;2023-12-04T02:18:24;13.37;;;11.97;;
27303;SDS011;14791;52.392;13.092;2023-12-04T02:20:54;11.87;;;10.63;;
27303;SDS011;14791;52.392;13.092;2023-12-04T02:23:22;10.97;;;9.80;;
27303;SDS011;14791;52.392;13.092;2023-12-04T02:25:51;10.63;;;9.73;;
27303;SDS011;14791;52.392;13.092;2023-12-04T02:28:25;11.30;;;10.13;;
27303;SDS011;14791;52.392;13.092;2023-12-04T02:30:57;11.03;;;9.93;;
27303;SDS011;14791;52.392;13.092;2023-12-04T02:33:27;10.93;;;9.67;;
27303;SDS011;14791;52.392;13.092;2023-12-04T02:35:58;11.27;;;10.07;;
27303;SDS011;14791;52.392;13.092;2023-12-04T02:38:28;10.00;;;9.03;;
27303;SDS011;14791;52.392;13.092;2023-12-04T02:40:58;10.43;;;9.43;;
27303;SDS011;14791;52.392;13.092;2023-12-04T02:43:27;11.40;;;10.30;;
27303;SDS011;14791;52.392;13.092;2023-12-04T02:45:56;11.97;;;10.77;;
27303;SDS011;14791;52.392;13.092;2023-12-04T02:48:25;12.73;;;11.43;;
27303;SDS011;14791;52.392;13.092;2023-12-04T02:50:53;12.23;;;10.77;;
27303;SDS011;14791;52.392;13.092;2023-12-04T02:53:23;11.70;;;10.57;;
27303;SDS011;14791;52.392;13.092;2023-12-04T02:55:52;10.97;;;9.87;;
27303;SDS011;14791;52.392;13.092;2023-12-04T02:58:20;10.23;;;9.23;;
27303;SDS011;14791;52.392;13.092;2023-12-04T03:00:49;10.40;;;9.43;;
27303;SDS011;14791;52.392;13.092;2023-12-04T03:03:18;10.07;;;9.07;;
27303;SDS011;14791;52.392;13.092;2023-12-04T03:05:47;10.80;;;9.80;;
27303;SDS011;14791;52.392;13.092;2023-12-04T03:08:16;10.03;;;9.10;;
27303;SDS011;14791;52.392;13.092;2023-12-04T03:10:45;11.93;;;10.73;;
27303;SDS011;14791;52.392;13.092;2023-12-04T03:13:14;10.60;;;9.63;;
27303;SDS011;14791;52.392;13.092;2023-12-04T03:15:42;10.63;;;9.53;;
27303;SDS011;14791;52.392;13.092;2023-12-04T03:18:12;10.57;;;9.23;;
27303;SDS011;14791;52.392;13.092;2023-12-04T03:20:40;10.43;;;9.07;;
27303;SDS011;14791;52.392;13.092;2023-12-04T03:23:09;10.10;;;9.20;;
27303;SDS011;14791;52.392;13.092;2023-12-04T03:25:38;11.27;;;10.17;;
27303;SDS011;14791;52.392;13.092;2023-12-04T03:28:07;10.83;;;9.73;;
27303;SDS011;14791;52.392;13.092;2023-12-04T03:30:36;11.17;;;9.97;;
27303;SDS011;14791;52.392;13.092;2023-12-04T03:33:05;10.77;;;9.77;;
27303;SDS011;14791;52.392;13.092;2023-12-04T03:35:34;10.97;;;9.87;;
27303;SDS011;14791;52.392;13.092;2023-12-04T03:38:02;10.90;;;9.80;;
27303;SDS011;14791;52.392;13.092;2023-12-04T03:40:31;10.60;;;9.33;;
27303;SDS011;14791;52.392;13.092;2023-12-04T03:43:00;10.27;;;9.27;;
27303;SDS011;14791;52.392;13.092;2023-12-04T03:45:29;9.47;;;8.60;;
27303;SDS011;14791;52.392;13.092;2023-12-04T03:47:58;10.80;;;9.67;;
27303;SDS011;14791;52.392;13.092;2023-12-04T03:50:27;10.93;;;9.83;;
27303;SDS011;14791;52.392;13.092;2023-12-04T03:52:56;12.20;;;10.33;;
27303;SDS011;14791;52.392;13.092;2023-12-04T03:55:25;11.17;;;10.17;;
27303;SDS011;14791;52.392;13.092;2023-12-04T03:57:54;12.80;;;10.67;;
27303;SDS011;14791;52.392;13.092;2023-12-04T04:00:25;10.83;;;9.73;;
27303;SDS011;14791;52.392;13.092;2023-12-04T04:02:53;10.53;;;9.43;;
27303;SDS011;14791;52.392;13.092;2023-12-04T04:05:22;10.27;;;9.20;;
27303;SDS011;14791;52.392;13.092;2023-12-04T04:07:51;10.63;;;9.63;;
27303;SDS011;14791;52.392;13.092;2023-12-04T04:10:20;10.13;;;9.17;;
27303;SDS011;14791;52.392;13.092;2023-12-04T04:12:49;11.33;;;9.40;;
27303;SDS011;14791;52.392;13.092;2023-12-04T04:15:18;11.10;;;9.33;;
27303;SDS011;14791;52.392;13.092;2023-12-04T04:17:47;10.73;;;9.67;;
27303;SDS011;14791;52.392;13.092;2023-12-04T04:20:16;9.63;;;8.63;;
27303;SDS011;14791;52.392;13.092;2023-12-04T04:22:47;11.13;;;9.93;;
27303;SDS011;14791;52.392;13.092;2023-12-04T04:25:16;10.40;;;9.40;;
27303;SDS011;14791;52.392;13.092;2023-12-04T04:27:45;10.90;;;9.73;;
27303;SDS011;14791;52.392;13.092;2023-12-04T04:30:14;10.80;;;9.60;;
27303;SDS011;14791;52.392;13.092;2023-12-04T04:32:44;10.83;;;9.73;;
27303;SDS011;14791;52.392;13.092;2023-12-04T04:35:13;11.50;;;9.67;;
27303;SDS011;14791;52.392;13.092;2023-12-04T04:37:42;11.13;;;9.70;;
27303;SDS011;14791;52.392;13.092;2023-12-04T04:40:11;9.67;;;8.73;;
27303;SDS011;14791;52.392;13.092;2023-12-04T04:42:40;10.30;;;9.30;;
27303;SDS011;14791;52.392;13.092;2023-12-04T04:45:09;10.07;;;9.17;;
27303;SDS011;14791;52.392;13.092;2023-12-04T04:47:38;10.73;;;9.63;;
27303;SDS011;14791;52.392;13.092;2023-12-04T04:50:07;10.03;;;9.00;;
27303;SDS011;14791;52.392;13.092;2023-12-04T04:52:36;10.03;;;8.73;;
27303;SDS011;14791;52.392;13.092;2023-12-04T04:55:05;10.33;;;9.43;;
27303;SDS011;14791;52.392;13.092;2023-12-04T04:57:34;9.70;;;8.80;;
27303;SDS011;14791;52.392;13.092;2023-12-04T05:00:03;10.20;;;9.10;;
27303;SDS011;14791;52.392;13.092;2023-12-04T05:02:33;11.07;;;9.97;;
27303;SDS011;14791;52.392;13.092;2023-12-04T05:05:03;11.70;;;10.10;;
27303;SDS011;14791;52.392;13.092;2023-12-04T05:07:32;10.17;;;9.27;;
27303;SDS011;14791;52.392;13.092;2023-12-04T05:10:01;10.60;;;9.60;;
27303;SDS011;14791;52.392;13.092;2023-12-04T05:12:30;10.50;;;9.47;;
27303;SDS011;14791;52.392;13.092;2023-12-04T05:14:58;9.93;;;9.00;;
27303;SDS011;14791;52.392;13.092;2023-12-04T05:17:27;10.87;;;9.20;;
27303;SDS011;14791;52.392;13.092;2023-12-04T05:19:56;10.60;;;9.60;;
27303;SDS011;14791;52.392;13.092;2023-12-04T05:22:25;10.00;;;8.67;;
27303;SDS011;14791;52.392;13.092;2023-12-04T05:24:54;9.47;;;8.60;;
27303;SDS011;14791;52.392;13.092;2023-12-04T05:27:23;9.37;;;8.57;;
27303;SDS011;14791;52.392;13.092;2023-12-04T05:29:52;10.43;;;9.53;;
27303;SDS011;14791;52.392;13.092;2023-12-04T05:32:21;9.80;;;8.93;;
27303;SDS011;14791;52.392;13.092;2023-12-04T05:34:50;9.93;;;8.97;;
27303;SDS011;14791;52.392;13.092;2023-12-04T05:37:19;8.90;;;8.07;;
27303;SDS011;14791;52.392;13.092;2023-12-04T05:39:48;9.60;;;8.73;;
27303;SDS011;14791;52.392;13.092;2023-12-04T05:42:16;10.73;;;9.70;;
27303;SDS011;14791;52.392;13.092;2023-12-04T05:44:45;9.37;;;8.57;;
27303;SDS011;14791;52.392;13.092;2023-12-04T05:47:14;9.23;;;8.43;;
27303;SDS011;14791;52.392;13.092;2023-12-04T05:49:43;9.67;;;8.83;;
27303;SDS011;14791;52.392;13.092;2023-12-04T05:52:12;9.83;;;8.77;;
27303;SDS011;14791;52.392;13.092;2023-12-04T05:54:41;10.50;;;9.50;;
27303;SDS011;14791;52.392;13.092;2023-12-04T05:57:10;10.70;;;9.70;;
27303;SDS011;14791;52.392;13.092;2023-12-04T05:59:39;10.27;;;9.30;;
27303;SDS011;14791;52.392;13.092;2023-12-04T06:02:08;10.17;;;9.17;;
27303;SDS011;14791;52.392;13.092;2023-12-04T06:04:37;9.57;;;8.73;;
27303;SDS011;14791;52.392;13.092;2023-12-04T06:07:06;10.10;;;9.20;;
27303;SDS011;14791;52.392;13.092;2023-12-04T06:09:35;9.73;;;8.83;;
27303;SDS011;14791;52.392;13.092;2023-12-04T06:12:04;10.87;;;9.20;;
27303;SDS011;14791;52.392;13.092;2023-12-04T06:14:35;9.63;;;8.77;;
27303;SDS011;14791;52.392;13.092;2023-12-04T06:17:04;9.97;;;9.10;;
27303;SDS011;14791;52.392;13.092;2023-12-04T06:19:33;10.67;;;9.27;;
27303;SDS011;14791;52.392;13.092;2023-12-04T06:22:02;10.40;;;9.47;;
27303;SDS011;14791;52.392;13.092;2023-12-04T06:24:31;9.43;;;8.53;;
27303;SDS011;14791;52.392;13.092;2023-12-04T06:27:01;9.90;;;9.10;;
27303;SDS011;14791;52.392;13.092;2023-12-04T06:29:32;9.97;;;9.10;;
27303;SDS011;14791;52.392;13.092;2023-12-04T06:32:02;10.90;;;9.60;;
27303;SDS011;14791;52.392;13.092;2023-12-04T06:34:32;10.53;;;9.53;;
27303;SDS011;14791;52.392;13.092;2023-12-04T06:37:09;9.50;;;8.60;;
27303;SDS011;14791;52.392;13.092;2023-12-04T06:39:36;9.67;;;8.60;;
27303;SDS011;14791;52.392;13.092;2023-12-04T06:42:07;9.50;;;8.67;;
27303;SDS011;14791;52.392;13.092;2023-12-04T06:44:39;9.93;;;9.03;;
27303;SDS011;14791;52.392;13.092;2023-12-04T06:47:08;10.07;;;9.07;;
27303;SDS011;14791;52.392;13.092;2023-12-04T06:49:38;9.77;;;8.90;;
27303;SDS011;14791;52.392;13.092;2023-12-04T06:52:07;10.17;;;9.27;;
27303;SDS011;14791;52.392;13.092;2023-12-04T06:54:36;10.17;;;9.20;;
27303;SDS011;14791;52.392;13.092;2023-12-04T06:57:04;9.83;;;8.93;;
27303;SDS011;14791;52.392;13.092;2023-12-04T06:59:33;11.13;;;9.93;;
27303;SDS011;14791;52.392;13.092;2023-12-04T07:02:02;10.27;;;9.37;;
27303;SDS011;14791;52.392;13.092;2023-12-04T07:04:32;10.43;;;9.50;;
27303;SDS011;14791;52.392;13.092;2023-12-04T07:07:01;10.13;;;9.23;;
27303;SDS011;14791;52.392;13.092;2023-12-04T07:09:32;10.77;;;9.77;;
27303;SDS011;14791;52.392;13.092;2023-12-04T07:12:04;11.43;;;10.33;;
27303;SDS011;14791;52.392;13.092;2023-12-04T07:14:33;11.23;;;10.10;;
27303;SDS011;14791;52.392;13.092;2023-12-04T07:17:02;10.93;;;9.80;;
27303;SDS011;14791;52.392;13.092;2023-12-04T07:19:31;12.07;;;10.90;;
27303;SDS011;14791;52.392;13.092;2023-12-04T07:22:00;12.30;;;11.10;;
27303;SDS011;14791;52.392;13.092;2023-12-04T07:24:29;11.97;;;10.63;;
27303;SDS011;14791;52.392;13.092;2023-12-04T07:26:58;11.80;;;10.63;;
27303;SDS011;14791;52.392;13.092;2023-12-04T07:29:28;11.97;;;10.27;;
27303;SDS011;14791;52.392;13.092;2023-12-04T07:31:56;10.53;;;9.53;;
27303;SDS011;14791;52.392;13.092;2023-12-04T07:34:26;11.20;;;10.20;;
27303;SDS011;14791;52.392;13.092;2023-12-04T07:36:55;11.93;;;10.73;;
27303;SDS011;14791;52.392;13.092;2023-12-04T07:39:24;11.90;;;10.70;;
27303;SDS011;14791;52.392;13.092;2023-12-04T07:41:53;11.83;;;10.70;;
27303;SDS011;14791;52.392;13.092;2023-12-04T07:44:22;10.53;;;9.63;;
27303;SDS011;14791;52.392;13.092;2023-12-04T07:46:51;10.43;;;9.53;;
27303;SDS011;14791;52.392;13.092;2023-12-04T07:49:19;11.63;;;10.33;;
27303;SDS011;14791;52.392;13.092;2023-12-04T07:51:48;11.87;;;10.73;;
27303;SDS011;14791;52.392;13.092;2023-12-04T07:54:17;10.90;;;9.90;;
27303;SDS011;14791;52.392;13.092;2023-12-04T07:56:46;11.87;;;10.77;;
27303;SDS011;14791;52.392;13.092;2023-12-04T07:59:15;10.03;;;9.07;;
27303;SDS011;14791;52.392;13.092;2023-12-04T08:01:44;10.83;;;9.77;;
27303;SDS011;14791;52.392;13.092;2023-12-04T08:04:13;10.40;;;9.50;;
27303;SDS011;14791;52.392;13.092;2023-12-04T08:06:42;11.13;;;10.03;;
27303;SDS011;14791;52.392;13.092;2023-12-04T08:09:10;10.70;;;9.77;;
27303;SDS011;14791;52.392;13.092;2023-12-04T08:11:39;10.60;;;9.60;;
27303;SDS011;14791;52.392;13.092;2023-12-04T08:14:08;11.17;;;10.03;;
27303;SDS011;14791;52.392;13.092;2023-12-04T08:16:37;10.43;;;9.43;;
27303;SDS011;14791;52.392;13.092;2023-12-04T08:19:06;9.90;;;8.93;;
27303;SDS011;14791;52.392;13.092;2023-12-04T08:21:35;9.93;;;8.93;;
27303;SDS011;14791;52.392;13.092;2023-12-04T08:24:04;10.53;;;9.63;;
27303;SDS011;14791;52.392;13.092;2023-12-04T08:26:33;11.07;;;9.97;;
27303;SDS011;14791;52.392;13.092;2023-12-04T08:29:03;11.13;;;10.03;;
27303;SDS011;14791;52.392;13.092;2023-12-04T08:31:31;11.93;;;10.73;;
27303;SDS011;14791;52.392;13.092;2023-12-04T08:34:00;10.47;;;9.47;;
27303;SDS011;14791;52.392;13.092;2023-12-04T08:36:29;10.37;;;9.37;;
27303;SDS011;14791;52.392;13.092;2023-12-04T08:38:58;11.00;;;9.90;;
27303;SDS011;14791;52.392;13.092;2023-12-04T08:41:27;10.70;;;9.70;;
27303;SDS011;14791;52.392;13.092;2023-12-04T08:43:56;10.60;;;9.50;;
27303;SDS011;14791;52.392;13.092;2023-12-04T08:46:25;10.50;;;9.60;;
27303;SDS011;14791;52.392;13.092;2023-12-04T08:48:54;10.67;;;9.67;;
27303;SDS011;14791;52.392;13.092;2023-12-04T08:51:23;11.07;;;10.13;;
27303;SDS011;14791;52.392;13.092;2023-12-04T08:53:52;10.93;;;9.93;;
27303;SDS011;14791;52.392;13.092;2023-12-04T08:56:21;11.17;;;10.17;;
27303;SDS011;14791;52.392;13.092;2023-12-04T08:58:50;12.20;;;10.20;;
27303;SDS011;14791;52.392;13.092;2023-12-04T09:01:19;9.17;;;8.37;;
27303;SDS011;14791;52.392;13.092;2023-12-04T09:03:48;9.63;;;8.83;;
27303;SDS011;14791;52.392;13.092;2023-12-04T09:06:16;9.23;;;8.50;;
27303;SDS011;14791;52.392;13.092;2023-12-04T09:08:45;10.17;;;9.17;;
27303;SDS011;14791;52.392;13.092;2023-12-04T09:11:14;9.93;;;9.13;;
27303;SDS011;14791;52.392;13.092;2023-12-04T09:13:43;10.73;;;9.70;;
27303;SDS011;14791;52.392;13.092;2023-12-04T09:16:12;10.80;;;9.43;;
27303;SDS011;14791;52.392;13.092;2023-12-04T09:18:41;9.70;;;8.97;;
27303;SDS011;14791;52.392;13.092;2023-12-04T09:21:10;10.00;;;9.20;;
27303;SDS011;14791;52.392;13.092;2023-12-04T09:23:39;8.83;;;8.13;;
27303;SDS011;14791;52.392;13.092;2023-12-04T09:26:07;9.47;;;8.67;;
27303;SDS011;14791;52.392;13.092;2023-12-04T09:28:36;10.57;;;9.00;;
27303;SDS011;14791;52.392;13.092;2023-12-04T09:31:05;9.27;;;8.47;;
27303;SDS011;14791;52.392;13.092;2023-12-04T09:33:36;9.30;;;8.67;;
27303;SDS011;14791;52.392;13.092;2023-12-04T09:36:05;10.13;;;9.13;;
27303;SDS011;14791;52.392;13.092;2023-12-04T09:38:34;9.47;;;8.67;;
27303;SDS011;14791;52.392;13.092;2023-12-04T09:41:03;9.57;;;8.77;;
27303;SDS011;14791;52.392;13.092;2023-12-04T09:43:34;8.97;;;8.27;;
27303;SDS011;14791;52.392;13.092;2023-12-04T09:46:04;9.77;;;8.97;;
27303;SDS011;14791;52.392;13.092;2023-12-04T09:48:34;9.13;;;8.40;;
27303;SDS011;14791;52.392;13.092;2023-12-04T09:51:04;8.87;;;8.17;;
27303;SDS011;14791;52.392;13.092;2023-12-04T09:53:34;8.83;;;8.23;;
27303;SDS011;14791;52.392;13.092;2023-12-04T09:56:04;9.97;;;9.17;;
27303;SDS011;14791;52.392;13.092;2023-12-04T09:58:36;10.03;;;9.17;;
27303;SDS011;14791;52.392;13.092;2023-12-04T10:01:08;9.90;;;9.00;;
27303;SDS011;14791;52.392;13.092;2023-12-04T10:03:37;10.07;;;9.27;;
27303;SDS011;14791;52.392;13.092;2023-12-04T10:06:08;9.60;;;8.77;;
27303;SDS011;14791;52.392;13.092;2023-12-04T10:08:39;9.73;;;9.00;;
27303;SDS011;14791;52.392;13.092;2023-12-04T10:11:07;9.73;;;8.90;;
27303;SDS011;14791;52.392;13.092;2023-12-04T10:13:36;9.30;;;8.57;;
27303;SDS011;14791;52.392;13.092;2023-12-04T10:16:05;9.83;;;9.13;;
27303;SDS011;14791;52.392;13.092;2023-12-04T10:18:35;10.27;;;9.47;;
27303;SDS011;14791;52.392;13.092;2023-12-04T10:21:04;9.30;;;8.50;;
27303;SDS011;14791;52.392;13.092;2023-12-04T10:23:36;10.03;;;9.27;;
27303;SDS011;14791;52.392;13.092;2023-12-04T10:26:06;9.33;;;8.63;;
27303;SDS011;14791;52.392;13.092;2023-12-04T10:28:36;9.50;;;8.80;;
27303;SDS011;14791;52.392;13.092;2023-12-04T10:31:05;9.20;;;8.40;;
27303;SDS011;14791;52.392;13.092;2023-12-04T10:33:34;9.00;;;8.30;;
27303;SDS011;14791;52.392;13.092;2023-12-04T10:36:04;9.43;;;8.73;;
27303;SDS011;14791;52.392;13.092;2023-12-04T10:38:36;9.80;;;8.83;;
27303;SDS011;14791;52.392;13.092;2023-12-04T10:41:14;9.07;;;8.37;;
27303;SDS011;14791;52.392;13.092;2023-12-04T10:43:46;8.77;;;8.13;;
27303;SDS011;14791;52.392;13.092;2023-12-04T10:46:15;7.73;;;7.23;;
27303;SDS011;14791;52.392;13.092;2023-12-04T10:48:45;7.93;;;7.43;;
27303;SDS011;14791;52.392;13.092;2023-12-04T10:51:16;8.17;;;7.57;;
27303;SDS011;14791;52.392;13.092;2023-12-04T10:53:48;8.93;;;8.30;;
27303;SDS011;14791;52.392;13.092;2023-12-04T10:56:25;9.03;;;8.40;;
27303;SDS011;14791;52.392;13.092;2023-12-04T10:58:50;7.90;;;7.40;;
27303;SDS011;14791;52.392;13.092;2023-12-04T11:01:20;9.17;;;8.43;;
27303;SDS011;14791;52.392;13.092;2023-12-04T11:03:53;8.10;;;7.60;;
27303;SDS011;14791;52.392;13.092;2023-12-04T11:06:25;7.97;;;7.47;;
27303;SDS011;14791;52.392;13.092;2023-12-04T11:08:57;8.50;;;7.90;;
27303;SDS011;14791;52.392;13.092;2023-12-04T11:11:28;9.03;;;8.33;;
27303;SDS011;14791;52.392;13.092;2023-12-04T11:14:01;8.67;;;8.07;;
27303;SDS011;14791;52.392;13.092;2023-12-04T11:16:36;7.63;;;7.13;;
27303;SDS011;14791;52.392;13.092;2023-12-04T11:19:36;8.63;;;7.93;;
27303;SDS011;14791;52.392;13.092;2023-12-04T11:22:19;7.47;;;6.97;;
27303;SDS011;14791;52.392;13.092;2023-12-04T11:24:49;8.47;;;7.90;;
27303;SDS011;14791;52.392;13.092;2023-12-04T11:27:20;7.70;;;7.20;;
27303;SDS011;14791;52.392;13.092;2023-12-04T11:29:50;7.47;;;6.90;;
27303;SDS011;14791;52.392;13.092;2023-12-04T11:32:20;8.00;;;7.40;;
27303;SDS011;14791;52.392;13.092;2023-12-04T11:34:59;8.33;;;7.83;;
27303;SDS011;14791;52.392;13.092;2023-12-04T11:37:29;8.13;;;7.53;;
27303;SDS011;14791;52.392;13.092;2023-12-04T11:39:58;7.80;;;7.20;;
27303;SDS011;14791;52.392;13.092;2023-12-04T11:42:31;8.07;;;7.53;;
27303;SDS011;14791;52.392;13.092;2023-12-04T11:45:00;9.80;;;9.00;;
27303;SDS011;14791;52.392;13.092;2023-12-04T11:47:30;8.03;;;7.53;;
27303;SDS011;14791;52.392;13.092;2023-12-04T11:50:04;7.67;;;7.17;;
27303;SDS011;14791;52.392;13.092;2023-12-04T11:52:33;7.17;;;6.73;;
27303;SDS011;14791;52.392;13.092;2023-12-04T11:55:04;6.80;;;6.40;;
27303;SDS011;14791;52.392;13.092;2023-12-04T11:57:40;7.57;;;7.07;;
27303;SDS011;14791;52.392;13.092;2023-12-04T12:05:25;7.27;;;6.67;;
27303;SDS011;14791;52.392;13.092;2023-12-04T12:07:55;7.03;;;6.63;;
27303;SDS011;14791;52.392;13.092;2023-12-04T12:10:24;8.57;;;7.97;;
27303;SDS011;14791;52.392;13.092;2023-12-04T12:12:54;8.43;;;7.83;;
27303;SDS011;14791;52.392;13.092;2023-12-04T12:15:24;7.63;;;7.13;;
27303;SDS011;14791;52.392;13.092;2023-12-04T12:17:53;7.73;;;7.33;;
27303;SDS011;14791;52.392;13.092;2023-12-04T12:20:22;6.63;;;6.23;;
27303;SDS011;14791;52.392;13.092;2023-12-04T12:22:51;7.10;;;6.70;;
27303;SDS011;14791;52.392;13.092;2023-12-04T12:25:20;6.90;;;6.40;;
27303;SDS011;14791;52.392;13.092;2023-12-04T12:27:50;6.97;;;6.50;;
27303;SDS011;14791;52.392;13.092;2023-12-04T12:30:19;7.03;;;6.63;;
27303;SDS011;14791;52.392;13.092;2023-12-04T12:32:49;7.07;;;6.57;;
27303;SDS011;14791;52.392;13.092;2023-12-04T12:35:19;7.60;;;7.10;;
27303;SDS011;14791;52.392;13.092;2023-12-04T12:37:48;7.77;;;7.20;;
27303;SDS011;14791;52.392;13.092;2023-12-04T12:40:20;7.30;;;6.90;;
27303;SDS011;14791;52.392;13.092;2023-12-04T12:42:49;6.80;;;6.40;;
27303;SDS011;14791;52.392;13.092;2023-12-04T12:45:18;7.67;;;7.13;;
27303;SDS011;14791;52.392;13.092;2023-12-04T12:47:48;7.47;;;6.97;;
27303;SDS011;14791;52.392;13.092;2023-12-04T12:50:18;6.77;;;6.37;;
27303;SDS011;14791;52.392;13.092;2023-12-04T12:52:48;6.50;;;6.10;;
27303;SDS011;14791;52.392;13.092;2023-12-04T12:55:23;5.43;;;5.23;;
27303;SDS011;14791;52.392;13.092;2023-12-04T12:57:55;6.30;;;6.00;;
27303;SDS011;14791;52.392;13.092;2023-12-04T13:00:24;6.27;;;5.97;;
27303;SDS011;14791;52.392;13.092;2023-12-04T13:02:55;6.20;;;5.90;;
27303;SDS011;14791;52.392;13.092;2023-12-04T13:05:24;6.40;;;6.07;;
27303;SDS011;14791;52.392;13.092;2023-12-04T13:07:53;6.83;;;6.23;;
27303;SDS011;14791;52.392;13.092;2023-12-04T13:10:22;5.80;;;5.60;;
27303;SDS011;14791;52.392;13.092;2023-12-04T13:12:51;6.30;;;6.00;;
27303;SDS011;14791;52.392;13.092;2023-12-04T13:15:22;5.13;;;4.83;;
27303;SDS011;14791;52.392;13.092;2023-12-04T13:17:51;5.90;;;5.60;;
27303;SDS011;14791;52.392;13.092;2023-12-04T13:20:20;5.60;;;5.30;;
27303;SDS011;14791;52.392;13.092;2023-12-04T13:22:50;5.70;;;5.40;;
27303;SDS011;14791;52.392;13.092;2023-12-04T13:25:19;6.07;;;5.77;;
27303;SDS011;14791;52.392;13.092;2023-12-04T13:27:49;5.13;;;4.83;;
27303;SDS011;14791;52.392;13.092;2023-12-04T13:30:18;5.50;;;5.30;;
27303;SDS011;14791;52.392;13.092;2023-12-04T13:32:47;6.23;;;5.93;;
27303;SDS011;14791;52.392;13.092;2023-12-04T13:35:17;6.00;;;5.67;;
27303;SDS011;14791;52.392;13.092;2023-12-04T13:37:46;5.43;;;5.23;;
27303;SDS011;14791;52.392;13.092;2023-12-04T13:40:16;5.73;;;5.43;;
27303;SDS011;14791;52.392;13.092;2023-12-04T13:42:46;5.70;;;5.40;;
27303;SDS011;14791;52.392;13.092;2023-12-04T13:45:33;5.53;;;5.23;;
27303;SDS011;14791;52.392;13.092;2023-12-04T13:48:02;5.50;;;5.23;;
27303;SDS011;14791;52.392;13.092;2023-12-04T13:50:31;5.77;;;5.47;;
27303;SDS011;14791;52.392;13.092;2023-12-04T13:53:00;5.60;;;5.20;;
27303;SDS011;14791;52.392;13.092;2023-12-04T13:55:31;5.47;;;5.27;;
27303;SDS011;14791;52.392;13.092;2023-12-04T13:58:17;6.13;;;5.83;;
27303;SDS011;14791;52.392;13.092;2023-12-04T14:01:06;6.67;;;6.27;;
27303;SDS011;14791;52.392;13.092;2023-12-04T14:03:37;6.53;;;6.13;;
27303;SDS011;14791;52.392;13.092;2023-12-04T14:06:06;6.47;;;6.17;;
27303;SDS011;14791;52.392;13.092;2023-12-04T14:08:37;6.67;;;6.10;;
27303;SDS011;14791;52.392;13.092;2023-12-04T14:11:06;6.17;;;5.87;;
27303;SDS011;14791;52.392;13.092;2023-12-04T14:13:36;6.80;;;6.40;;
27303;SDS011;14791;52.392;13.092;2023-12-04T14:16:09;6.30;;;6.00;;
27303;SDS011;14791;52.392;13.092;2023-12-04T14:18:39;5.93;;;5.63;;
27303;SDS011;14791;52.392;13.092;2023-12-04T14:21:08;5.90;;;5.53;;
27303;SDS011;14791;52.392;13.092;2023-12-04T14:23:38;6.73;;;6.33;;
27303;SDS011;14791;52.392;13.092;2023-12-04T14:26:07;8.33;;;7.73;;
27303;SDS011;14791;52.392;13.092;2023-12-04T14:28:36;6.87;;;6.50;;
27303;SDS011;14791;52.392;13.092;2023-12-04T14:31:05;7.23;;;6.73;;
27303;SDS011;14791;52.392;13.092;2023-12-04T14:33:34;6.93;;;6.53;;
27303;SDS011;14791;52.392;13.092;2023-12-04T14:36:03;6.23;;;5.93;;
27303;SDS011;14791;52.392;13.092;2023-12-04T14:38:33;5.50;;;5.20;;
27303;SDS011;14791;52.392;13.092;2023-12-04T14:41:02;6.40;;;6.10;;
27303;SDS011;14791;52.392;13.092;2023-12-04T14:43:31;5.67;;;5.37;;
27303;SDS011;14791;52.392;13.092;2023-12-04T14:46:00;5.80;;;5.50;;